Time;durP1;ratioP1;P1;durP2;ratioP2;P2;SDS_P1;SDS_P2;PMS_P1;PMS_P2;Temp;Humidity;BMP_temperature;BMP_pressure;BME280_temperature;BME280_humidity;BME280_pressure;Samples;Min_cycle;Max_cycle;Signal;HPM_P1;HPM_P2
2021/01/01 00:00:09;;;;;;;;;;;;;;;-1.72;98.99;91716.09;1066023;55;20191;-84
2021/01/01 00:01:10;;;;;;;;;;;;;;;-1.70;98.58;91713.88;1065930;55;20630;-83
2021/01/01 00:02:12;;;;;;;;;;;;;;;-1.64;98.17;91716.87;1063851;55;20177;-83
2021/01/01 00:03:13;;;;;;;;;;;;;;;-1.69;98.85;91715.37;1063994;56;20150;-84
2021/01/01 00:04:15;;;;;;;;;;;;;;;-1.73;99.05;91714.63;1063925;55;20598;-84
2021/01/01 00:05:15;;;;;;;;;;;;;;;-1.81;98.92;91713.09;1065952;55;20158;-82
2021/01/01 00:06:16;;;;;;;;;;;;;;;-1.86;98.96;91713.47;1065991;55;20286;-83
2021/01/01 00:07:19;;;;;;;;;;;;;;;-1.80;99.04;91714.59;1065950;55;20180;-84
2021/01/01 00:08:20;;;;;;;;;;;;;;;-1.74;99.34;91707.87;1063901;55;20166;-83
2021/01/01 00:09:20;;;;;;;;;;;;;;;-1.75;99.05;91710.88;1063866;56;20169;-84
2021/01/01 00:10:21;;;;;;;;;;;;;;;-1.73;98.79;91709.37;1065910;55;20185;-83
2021/01/01 00:11:21;;;;;;;;;;;;;;;-1.68;99.01;91713.50;1066047;55;20254;-83
2021/01/01 00:12:22;;;;;;;;;;;;;;;-1.53;98.38;91709.78;1063876;56;20188;-84
2021/01/01 00:13:22;;;;;;;;;;;;;;;-1.66;98.52;91716.50;1063765;56;20168;-84
2021/01/01 00:14:23;;;;;;;;;;;;;;;-1.71;98.51;91712.38;1063838;56;20247;-85
2021/01/01 00:15:23;;;;;;;;;;;;;;;-1.78;98.89;91712.38;1065942;55;20142;-83
2021/01/01 00:16:24;;;;;;;;;;;;;;;-1.76;99.33;91715.34;1061776;56;20158;-83
2021/01/01 00:17:25;;;;;;;;;;;;;;;-1.62;99.00;91699.66;1061674;56;20176;-83
2021/01/01 00:18:25;;;;;;;;;;;;;;;-1.60;98.97;91715.75;1063706;56;20165;-83
2021/01/01 00:19:25;;;;;;;;;;;;;;;-1.64;98.88;91706.38;1063716;56;20173;-84
2021/01/01 00:20:26;;;;;;;;;;;;;;;-1.69;99.16;91712.00;1061603;56;20206;-87
2021/01/01 00:21:29;;;;;;;;;;;;;;;-1.68;99.20;91708.25;1061493;56;20255;-83
2021/01/01 00:22:32;;;;;;;;;;;;;;;-1.69;99.25;91715.37;1061949;56;20162;-84
2021/01/01 00:23:33;;;;;;;;;;;;;;;-1.67;99.13;91705.25;1061874;56;20619;-83
2021/01/01 00:24:34;;;;;;;;;;;;;;;-1.69;99.28;91709.37;1063856;56;20767;-83
2021/01/01 00:25:34;;;;;;;;;;;;;;;-1.75;99.46;91713.50;1065972;55;20263;-83
2021/01/01 00:26:35;;;;;;;;;;;;;;;-1.78;99.77;91713.12;1063774;56;20150;-84
2021/01/01 00:27:37;;;;;;;;;;;;;;;-1.71;99.46;91709.00;1063900;55;20189;-84
2021/01/01 00:28:39;;;;;;;;;;;;;;;-1.80;99.41;91712.75;1063743;56;20631;-84
2021/01/01 00:29:39;;;;;;;;;;;;;;;-1.82;99.82;91709.75;1063727;55;20572;-83
2021/01/01 00:30:39;;;;;;;;;;;;;;;-1.77;99.77;91717.22;1065882;55;20177;-84
2021/01/01 00:31:40;;;;;;;;;;;;;;;-1.70;99.89;91716.50;1063602;56;20697;-83
2021/01/01 00:32:41;;;;;;;;;;;;;;;-1.77;99.62;91713.88;1061592;56;20188;-84
2021/01/01 00:33:42;;;;;;;;;;;;;;;-1.71;99.24;91712.38;1063833;55;20181;-83
2021/01/01 00:34:42;;;;;;;;;;;;;;;-1.73;99.55;91724.34;1065969;55;20683;-85
2021/01/01 00:35:44;;;;;;;;;;;;;;;-1.79;99.57;91723.97;1065928;55;20157;-85
2021/01/01 00:36:45;;;;;;;;;;;;;;;-1.70;99.70;91719.12;1065872;55;20664;-84
2021/01/01 00:37:45;;;;;;;;;;;;;;;-1.77;99.54;91716.47;1065813;55;20254;-85
2021/01/01 00:38:50;;;;;;;;;;;;;;;-1.75;99.19;91729.22;1065726;55;20656;-84
2021/01/01 00:39:50;;;;;;;;;;;;;;;-1.72;99.70;91715.37;1066040;55;20640;-85
2021/01/01 00:40:51;;;;;;;;;;;;;;;-1.72;99.66;91707.50;1066064;55;20181;-84
2021/01/01 00:41:52;;;;;;;;;;;;;;;-1.65;99.52;91721.38;1063866;56;20158;-85
2021/01/01 00:42:53;;;;;;;;;;;;;;;-1.74;99.40;91718.38;1065949;55;20180;-83
2021/01/01 00:43:54;;;;;;;;;;;;;;;-1.77;99.56;91722.47;1065875;55;20168;-84
2021/01/01 00:44:55;;;;;;;;;;;;;;;-1.81;99.63;91719.09;1065966;55;20165;-83
2021/01/01 00:45:55;;;;;;;;;;;;;;;-1.79;99.67;91719.47;1063766;56;20153;-83
2021/01/01 00:46:55;;;;;;;;;;;;;;;-1.75;99.75;91719.50;1063803;56;20209;-83
2021/01/01 00:47:56;;;;;;;;;;;;;;;-1.77;99.47;91714.59;1065845;55;20668;-84
2021/01/01 00:48:58;;;;;;;;;;;;;;;-1.81;99.68;91716.47;1065900;55;20168;-84
2021/01/01 00:49:58;;;;;;;;;;;;;;;-1.81;99.56;91720.97;1065500;55;20245;-84
2021/01/01 00:51:01;;;;;;;;;;;;;;;-1.85;99.76;91717.59;1061555;56;20233;-85
2021/01/01 00:52:05;;;;;;;;;;;;;;;-1.81;99.90;91718.34;1061787;56;20728;-86
2021/01/01 00:53:06;;;;;;;;;;;;;;;-1.82;99.60;91717.59;1063694;55;20162;-83
2021/01/01 00:54:07;;;;;;;;;;;;;;;-1.82;100.00;91722.09;1061681;56;20248;-82
2021/01/01 00:55:07;;;;;;;;;;;;;;;-1.83;100.00;91729.19;1064050;55;20597;-83
2021/01/01 00:56:08;;;;;;;;;;;;;;;-1.82;99.94;91724.72;1061872;56;20154;-84
2021/01/01 00:57:08;;;;;;;;;;;;;;;-1.83;99.89;91723.97;1061799;56;20200;-83
2021/01/01 00:58:09;;;;;;;;;;;;;;;-1.80;99.88;91727.69;1059718;56;20181;-83
2021/01/01 00:59:09;;;;;;;;;;;;;;;-1.85;100.00;91720.22;1061910;56;20166;-85
2021/01/01 01:00:12;;;;;;;;;;;;;;;-1.84;99.74;91725.09;1066250;55;21102;-84
2021/01/01 01:01:13;;;;;;;;;;;;;;;-1.86;99.72;91729.19;1064079;55;20165;-84
2021/01/01 01:02:13;;;;;;;;;;;;;;;-1.88;100.00;91729.56;1061952;56;20192;-85
2021/01/01 01:03:14;;;;;;;;;;;;;;;-1.89;99.51;91728.06;1062083;56;20177;-85
2021/01/01 01:04:14;;;;;;;;;;;;;;;-1.88;99.83;91726.22;1061926;56;20170;-83
2021/01/01 01:05:15;;;;;;;;;;;;;;;-1.86;99.99;91729.19;1061939;56;20162;-83
2021/01/01 01:06:16;;;;;;;;;;;;;;;-1.85;99.89;91728.06;1061845;56;20162;-84
2021/01/01 01:07:16;;;;;;;;;;;;;;;-1.89;99.90;91733.31;1061973;56;20154;-84
2021/01/01 01:08:17;;;;;;;;;;;;;;;-1.87;99.69;91727.69;1059890;56;20158;-84
2021/01/01 01:09:18;;;;;;;;;;;;;;;-1.91;99.59;91726.94;1061673;56;20177;-84
2021/01/01 01:10:18;;;;;;;;;;;;;;;-1.91;99.42;91724.31;1061814;56;20213;-83
2021/01/01 01:11:23;;;;;;;;;;;;;;;-1.92;99.61;91725.44;1059717;56;20600;-84
2021/01/01 01:12:23;;;;;;;;;;;;;;;-1.91;99.56;91724.31;1062292;55;20178;-83
2021/01/01 01:13:24;;;;;;;;;;;;;;;-1.97;99.86;91726.56;1064066;55;20177;-83
2021/01/01 01:14:24;;;;;;;;;;;;;;;-1.92;99.56;91734.06;1061975;56;20158;-84
2021/01/01 01:15:25;;;;;;;;;;;;;;;-1.94;99.52;91736.28;1064041;55;20256;-84
2021/01/01 01:16:26;;;;;;;;;;;;;;;-1.92;99.49;91741.16;1064013;55;20154;-85
2021/01/01 01:17:27;;;;;;;;;;;;;;;-1.95;99.76;91737.41;1064159;55;20266;-84
2021/01/01 01:18:30;;;;;;;;;;;;;;;-1.93;99.74;91740.41;1063865;55;20186;-84
2021/01/01 01:19:31;;;;;;;;;;;;;;;-1.89;100.00;91740.41;1061943;56;20170;-85
2021/01/01 01:20:31;;;;;;;;;;;;;;;-1.91;99.91;91746.00;1061983;56;21109;-84
2021/01/01 01:21:31;;;;;;;;;;;;;;;-1.92;99.88;91751.63;1064097;55;20184;-84
2021/01/01 01:22:32;;;;;;;;;;;;;;;-1.90;100.00;91754.63;1064144;55;20153;-85
2021/01/01 01:23:32;;;;;;;;;;;;;;;-1.91;99.97;91756.50;1061893;56;20241;-84
2021/01/01 01:24:33;;;;;;;;;;;;;;;-1.88;100.00;91755.75;1064005;55;20154;-85
2021/01/01 01:25:34;;;;;;;;;;;;;;;-1.91;100.00;91758.34;1061892;56;20158;-83
2021/01/01 01:26:38;;;;;;;;;;;;;;;-1.91;100.00;91753.13;1060014;56;20159;-87
2021/01/01 01:27:39;;;;;;;;;;;;;;;-1.89;100.00;91750.88;1063954;55;20162;-84
2021/01/01 01:28:39;;;;;;;;;;;;;;;-1.93;99.94;91753.50;1064002;55;20243;-83
2021/01/01 01:29:40;;;;;;;;;;;;;;;-1.94;100.00;91759.09;1063978;55;20174;-83
2021/01/01 01:30:40;;;;;;;;;;;;;;;-1.94;100.00;91751.25;1061853;56;20174;-85
2021/01/01 01:31:41;;;;;;;;;;;;;;;-1.92;99.83;91755.00;1059723;56;20221;-84
2021/01/01 01:32:41;;;;;;;;;;;;;;;-1.89;100.00;91753.50;1062123;55;20173;-84
2021/01/01 01:33:42;;;;;;;;;;;;;;;-1.90;100.00;91752.75;1063933;55;20154;-84
2021/01/01 01:34:42;;;;;;;;;;;;;;;-1.89;99.95;91756.88;1064063;55;20193;-83
2021/01/01 01:35:43;;;;;;;;;;;;;;;-1.87;99.72;91753.87;1063963;55;20158;-83
2021/01/01 01:36:44;;;;;;;;;;;;;;;-1.88;100.00;91750.53;1061988;56;20186;-83
2021/01/01 01:37:44;;;;;;;;;;;;;;;-1.84;99.80;91758.38;1064198;55;20287;-83
2021/01/01 01:38:45;;;;;;;;;;;;;;;-1.86;99.54;91752.75;1061769;56;20197;-83
2021/01/01 01:39:45;;;;;;;;;;;;;;;-1.87;100.00;91756.50;1064169;55;20165;-84
2021/01/01 01:40:46;;;;;;;;;;;;;;;-1.84;100.00;91761.00;1061836;56;20184;-83
2021/01/01 01:41:46;;;;;;;;;;;;;;;-1.90;99.58;91757.97;1059981;56;20170;-83
2021/01/01 01:42:47;;;;;;;;;;;;;;;-1.91;99.97;91756.50;1064132;55;20154;-83
2021/01/01 01:43:48;;;;;;;;;;;;;;;-1.90;99.81;91757.22;1066049;55;20169;-84
2021/01/01 01:44:48;;;;;;;;;;;;;;;-1.91;100.00;91766.97;1061892;56;20162;-83
2021/01/01 01:45:49;;;;;;;;;;;;;;;-1.90;100.00;91760.59;1061834;56;20178;-84
2021/01/01 01:46:50;;;;;;;;;;;;;;;-1.89;99.99;91771.81;1061875;56;20241;-83
2021/01/01 01:47:51;;;;;;;;;;;;;;;-1.88;100.00;91765.47;1064224;55;20661;-84
2021/01/01 01:48:52;;;;;;;;;;;;;;;-1.88;100.00;91765.47;1063820;55;20225;-85
2021/01/01 01:49:52;;;;;;;;;;;;;;;-1.83;100.00;91771.09;1063418;55;20567;-83
2021/01/01 01:50:53;;;;;;;;;;;;;;;-1.83;99.87;91775.59;1059921;56;20165;-84
2021/01/01 01:51:54;;;;;;;;;;;;;;;-1.82;99.86;91769.22;1059716;56;20185;-82
2021/01/01 01:52:55;;;;;;;;;;;;;;;-1.80;99.60;91774.84;1061925;56;20169;-84
2021/01/01 01:53:56;;;;;;;;;;;;;;;-1.73;99.63;91768.87;1064123;55;20192;-83
2021/01/01 01:54:58;;;;;;;;;;;;;;;-1.81;99.37;91768.09;1064019;55;20571;-84
2021/01/01 01:55:59;;;;;;;;;;;;;;;-1.88;99.58;91771.47;1066133;55;20597;-85
2021/01/01 01:56:59;;;;;;;;;;;;;;;-1.86;99.73;91771.84;1059620;56;20166;-83
2021/01/01 01:58:00;;;;;;;;;;;;;;;-1.89;99.91;91771.81;1059618;56;20150;-83
2021/01/01 01:59:01;;;;;;;;;;;;;;;-1.88;100.00;91762.88;1059708;56;20177;-84
2021/01/01 02:00:09;;;;;;;;;;;;;;;-1.83;100.00;91772.97;1061871;55;20618;-84
2021/01/01 02:01:11;;;;;;;;;;;;;;;-1.87;99.76;91774.84;1063841;55;20254;-87
2021/01/01 02:02:12;;;;;;;;;;;;;;;-1.88;99.81;91770.72;1061833;56;20642;-84
2021/01/01 02:03:16;;;;;;;;;;;;;;;-1.90;99.58;91778.94;1061859;56;20259;-84
2021/01/01 02:04:16;;;;;;;;;;;;;;;-1.91;99.44;91776.69;1061986;56;20181;-82
2021/01/01 02:05:17;;;;;;;;;;;;;;;-1.98;99.86;91769.56;1061735;56;20173;-83
2021/01/01 02:06:17;;;;;;;;;;;;;;;-1.94;99.79;91778.16;1063946;55;20173;-84
2021/01/01 02:07:18;;;;;;;;;;;;;;;-1.90;99.77;91781.53;1066524;55;20154;-84
2021/01/01 02:08:19;;;;;;;;;;;;;;;-1.93;99.70;91776.28;1064115;55;20639;-86
2021/01/01 02:09:19;;;;;;;;;;;;;;;-1.95;100.00;91776.66;1061650;56;20185;-84
2021/01/01 02:10:20;;;;;;;;;;;;;;;-1.92;99.94;91785.66;1061778;56;20166;-84
2021/01/01 02:11:21;;;;;;;;;;;;;;;-1.95;99.97;91776.66;1063979;55;21246;-83
2021/01/01 02:12:22;;;;;;;;;;;;;;;-1.82;99.85;91779.69;1061880;56;20158;-83
2021/01/01 02:13:23;;;;;;;;;;;;;;;-1.88;100.00;91781.19;1061898;56;20598;-85
2021/01/01 02:14:23;;;;;;;;;;;;;;;-1.86;99.69;91781.56;1061896;56;20166;-83
2021/01/01 02:15:26;;;;;;;;;;;;;;;-1.88;99.43;91787.19;1059641;56;20182;-83
2021/01/01 02:16:26;;;;;;;;;;;;;;;-1.81;99.43;91789.06;1059814;56;20254;-84
2021/01/01 02:17:28;;;;;;;;;;;;;;;-1.85;99.44;91785.66;1061830;56;20260;-84
2021/01/01 02:18:32;;;;;;;;;;;;;;;-1.71;99.22;91780.50;1063927;55;20165;-84
2021/01/01 02:19:33;;;;;;;;;;;;;;;-1.73;98.59;91784.59;1061908;56;20603;-85
2021/01/01 02:20:34;;;;;;;;;;;;;;;-1.80;98.61;91782.69;1059743;56;20154;-85
2021/01/01 02:21:38;;;;;;;;;;;;;;;-1.80;98.74;91780.06;1061844;56;20158;-84
2021/01/01 02:22:38;;;;;;;;;;;;;;;-1.87;98.71;91783.44;1059600;56;20190;-84
2021/01/01 02:23:40;;;;;;;;;;;;;;;-1.89;98.74;91785.69;1061954;55;20180;-84
2021/01/01 02:24:40;;;;;;;;;;;;;;;-1.89;98.79;91785.69;1061662;56;20169;-84
2021/01/01 02:25:41;;;;;;;;;;;;;;;-1.91;98.50;91787.16;1059845;56;20178;-85
2021/01/01 02:26:41;;;;;;;;;;;;;;;-1.96;99.22;91790.16;1064111;55;20154;-83
2021/01/01 02:27:45;;;;;;;;;;;;;;;-2.01;98.94;91790.50;1066169;55;20165;-83
2021/01/01 02:28:45;;;;;;;;;;;;;;;-1.97;99.43;91783.41;1063823;55;20220;-83
2021/01/01 02:29:46;;;;;;;;;;;;;;;-2.03;99.76;91783.75;1061783;56;20149;-84
2021/01/01 02:30:46;;;;;;;;;;;;;;;-2.01;99.83;91787.88;1059654;56;20162;-84
2021/01/01 02:31:47;;;;;;;;;;;;;;;-2.06;99.46;91784.50;1059517;56;20174;-83
2021/01/01 02:32:47;;;;;;;;;;;;;;;-1.99;99.66;91790.88;1061665;56;20650;-84
2021/01/01 02:33:51;;;;;;;;;;;;;;;-1.98;99.47;91794.97;1063937;55;20613;-85
2021/01/01 02:34:53;;;;;;;;;;;;;;;-2.01;99.47;91783.41;1061605;56;20719;-85
2021/01/01 02:35:56;;;;;;;;;;;;;;;-1.97;99.81;91788.66;1061938;55;20166;-84
2021/01/01 02:36:59;;;;;;;;;;;;;;;-1.93;99.59;91778.91;1061680;56;20182;-82
2021/01/01 02:38:00;;;;;;;;;;;;;;;-1.98;99.79;91794.97;1059733;56;20635;-84
2021/01/01 02:39:00;;;;;;;;;;;;;;;-1.93;99.64;91781.53;1061651;56;20185;-83
2021/01/01 02:40:01;;;;;;;;;;;;;;;-1.93;99.77;91786.75;1061885;56;20178;-83
2021/01/01 02:41:01;;;;;;;;;;;;;;;-1.95;99.52;91784.53;1061771;56;20256;-84
2021/01/01 02:42:02;;;;;;;;;;;;;;;-1.93;99.63;91784.16;1063975;55;20267;-84
2021/01/01 02:43:02;;;;;;;;;;;;;;;-1.95;100.00;91784.53;1066073;55;20157;-84
2021/01/01 02:44:03;;;;;;;;;;;;;;;-1.92;99.84;91781.19;1061840;56;20700;-84
2021/01/01 02:45:03;;;;;;;;;;;;;;;-1.91;99.70;91787.16;1061690;56;20643;-83
2021/01/01 02:46:04;;;;;;;;;;;;;;;-1.94;99.73;91782.66;1061733;56;20193;-84
2021/01/01 02:47:04;;;;;;;;;;;;;;;-1.93;99.88;91773.69;1061573;56;20161;-83
2021/01/01 02:48:15;;;;;;;;;;;;;;;-1.96;100.00;91785.66;1063976;55;20243;-83
2021/01/01 02:49:15;;;;;;;;;;;;;;;-2.00;100.00;91784.87;1064161;55;20161;-84
2021/01/01 02:50:17;;;;;;;;;;;;;;;-2.03;100.00;91783.00;1061635;56;20185;-83
2021/01/01 02:51:17;;;;;;;;;;;;;;;-2.05;100.00;91787.88;1059578;56;20571;-83
2021/01/01 02:52:18;;;;;;;;;;;;;;;-2.01;100.00;91782.66;1061526;56;20169;-86
2021/01/01 02:53:18;;;;;;;;;;;;;;;-2.00;100.00;91786.75;1061602;56;20167;-83
2021/01/01 02:54:19;;;;;;;;;;;;;;;-1.99;100.00;91790.88;1063663;55;20262;-83
2021/01/01 02:55:22;;;;;;;;;;;;;;;-2.00;100.00;91782.28;1061499;56;20193;-85
2021/01/01 02:56:23;;;;;;;;;;;;;;;-1.96;100.00;91780.41;1061207;56;20744;-84
2021/01/01 02:57:23;;;;;;;;;;;;;;;-1.97;99.99;91780.78;1061629;56;20654;-84
2021/01/01 02:58:24;;;;;;;;;;;;;;;-1.97;100.00;91788.66;1061740;56;20173;-85
2021/01/01 02:59:24;;;;;;;;;;;;;;;-1.96;100.00;91787.53;1063841;55;20166;-83
2021/01/01 03:00:25;;;;;;;;;;;;;;;-1.96;100.00;91787.53;1061645;56;20146;-84
2021/01/01 03:01:25;;;;;;;;;;;;;;;-1.96;100.00;91777.78;1059661;56;20159;-83
2021/01/01 03:02:26;;;;;;;;;;;;;;;-1.94;100.00;91787.91;1061733;56;20162;-85
2021/01/01 03:03:27;;;;;;;;;;;;;;;-1.92;100.00;91786.41;1059525;56;20170;-85
2021/01/01 03:04:27;;;;;;;;;;;;;;;-1.91;100.00;91785.28;1061632;56;20175;-85
2021/01/01 03:05:28;;;;;;;;;;;;;;;-1.86;99.85;91787.53;1063742;55;20255;-84
2021/01/01 03:06:28;;;;;;;;;;;;;;;-1.81;99.49;91781.19;1063857;55;20258;-84
2021/01/01 03:07:29;;;;;;;;;;;;;;;-1.69;98.95;91787.97;1061714;56;20165;-83
2021/01/01 03:08:30;;;;;;;;;;;;;;;-1.78;98.52;91783.06;1059546;56;20166;-85
2021/01/01 03:09:31;;;;;;;;;;;;;;;-1.79;99.20;91786.81;1059739;56;20178;-84
2021/01/01 03:10:31;;;;;;;;;;;;;;;-1.81;98.68;91778.56;1061750;56;20193;-83
2021/01/01 03:11:32;;;;;;;;;;;;;;;-1.77;98.60;91779.34;1064016;55;20177;-84
2021/01/01 03:12:32;;;;;;;;;;;;;;;-1.81;98.70;91789.06;1063906;55;20157;-84
2021/01/01 03:13:33;;;;;;;;;;;;;;;-1.87;99.13;91778.19;1061665;56;20161;-85
2021/01/01 03:14:33;;;;;;;;;;;;;;;-1.88;99.26;91781.19;1061595;56;20158;-84
2021/01/01 03:15:34;;;;;;;;;;;;;;;-1.88;99.53;91778.56;1061837;56;20162;-84
2021/01/01 03:16:34;;;;;;;;;;;;;;;-1.90;99.42;91781.53;1059278;56;20221;-84
2021/01/01 03:17:34;;;;;;;;;;;;;;;-1.96;100.00;91785.66;1061786;56;20646;-84
2021/01/01 03:18:35;;;;;;;;;;;;;;;-1.96;99.84;91784.91;1061593;56;20642;-84
2021/01/01 03:19:35;;;;;;;;;;;;;;;-1.97;99.76;91783.41;1061810;56;20193;-84
2021/01/01 03:20:36;;;;;;;;;;;;;;;-1.96;100.00;91777.06;1059678;56;20229;-84
2021/01/01 03:21:36;;;;;;;;;;;;;;;-1.95;99.58;91786.41;1061593;56;20154;-84
2021/01/01 03:22:37;;;;;;;;;;;;;;;-1.97;99.92;91784.16;1061676;56;20642;-84
2021/01/01 03:23:37;;;;;;;;;;;;;;;-2.00;99.48;91784.87;1061728;56;20154;-83
2021/01/01 03:24:38;;;;;;;;;;;;;;;-1.93;99.50;91790.16;1061624;56;20658;-85
2021/01/01 03:25:38;;;;;;;;;;;;;;;-1.94;99.02;91782.66;1059615;56;20162;-85
2021/01/01 03:26:39;;;;;;;;;;;;;;;-1.93;99.21;91784.91;1061775;56;20690;-83
2021/01/01 03:27:40;;;;;;;;;;;;;;;-1.96;99.23;91780.41;1063786;55;20169;-84
2021/01/01 03:28:41;;;;;;;;;;;;;;;-1.95;99.06;91789.75;1059493;56;20694;-83
2021/01/01 03:29:41;;;;;;;;;;;;;;;-1.92;99.33;91783.78;1059503;56;20189;-83
2021/01/01 03:30:41;;;;;;;;;;;;;;;-1.94;99.63;91782.66;1057551;56;20305;-84
2021/01/01 03:31:42;;;;;;;;;;;;;;;-1.90;99.34;91776.31;1061778;56;20256;-84
2021/01/01 03:32:42;;;;;;;;;;;;;;;-1.95;99.65;91779.28;1064043;55;21060;-84
2021/01/01 03:33:43;;;;;;;;;;;;;;;-1.99;99.07;91794.25;1061539;56;20225;-84
2021/01/01 03:34:43;;;;;;;;;;;;;;;-1.99;99.11;91780.41;1061784;56;20184;-85
2021/01/01 03:35:44;;;;;;;;;;;;;;;-2.06;99.19;91786.38;1063789;55;20699;-82
2021/01/01 03:36:44;;;;;;;;;;;;;;;-2.03;99.19;91783.00;1061710;56;20154;-84
2021/01/01 03:37:45;;;;;;;;;;;;;;;-2.04;98.79;91781.50;1061816;56;20235;-84
2021/01/01 03:38:46;;;;;;;;;;;;;;;-2.10;99.12;91786.34;1063846;55;20657;-83
2021/01/01 03:39:47;;;;;;;;;;;;;;;-2.12;98.95;91785.97;1066215;55;20180;-84
2021/01/01 03:40:47;;;;;;;;;;;;;;;-2.14;99.04;91782.97;1061563;56;20213;-84
2021/01/01 03:41:49;;;;;;;;;;;;;;;-2.13;98.99;91789.69;1061810;55;20682;-84
2021/01/01 03:42:49;;;;;;;;;;;;;;;-2.10;99.30;91790.84;1061557;56;20177;-83
2021/01/01 03:43:50;;;;;;;;;;;;;;;-2.12;99.03;91793.81;1059352;56;20670;-83
2021/01/01 03:44:50;;;;;;;;;;;;;;;-2.16;99.08;91787.81;1059467;56;20185;-84
2021/01/01 03:45:51;;;;;;;;;;;;;;;-2.14;99.19;91792.69;1061852;56;20216;-84
2021/01/01 03:46:52;;;;;;;;;;;;;;;-2.13;99.17;91787.09;1063790;55;20267;-83
2021/01/01 03:47:53;;;;;;;;;;;;;;;-2.12;99.46;91787.84;1063803;55;20174;-84
2021/01/01 03:48:53;;;;;;;;;;;;;;;-2.12;99.09;91785.97;1061650;56;20146;-84
2021/01/01 03:49:54;;;;;;;;;;;;;;;-2.07;99.66;91798.69;1063323;56;20153;-85
2021/01/01 03:50:55;;;;;;;;;;;;;;;-2.12;99.74;91785.97;1065917;55;20158;-86
2021/01/01 03:51:56;;;;;;;;;;;;;;;-2.09;99.75;91787.84;1063773;55;20270;-83
2021/01/01 03:52:56;;;;;;;;;;;;;;;-2.09;100.00;91785.22;1061745;56;20158;-84
2021/01/01 03:53:58;;;;;;;;;;;;;;;-2.10;100.00;91788.22;1063644;55;20184;-84
2021/01/01 03:54:59;;;;;;;;;;;;;;;-2.09;99.93;91792.34;1063683;55;20177;-84
2021/01/01 03:55:59;;;;;;;;;;;;;;;-2.07;100.00;91792.72;1065841;55;20650;-82
2021/01/01 03:57:00;;;;;;;;;;;;;;;-2.01;99.52;91795.75;1068172;55;20176;-84
2021/01/01 03:58:01;;;;;;;;;;;;;;;-2.05;99.52;91788.62;1063767;56;20162;-83
2021/01/01 03:59:01;;;;;;;;;;;;;;;-2.05;99.43;91791.22;1061745;56;20191;-83
2021/01/01 04:00:05;;;;;;;;;;;;;;;-2.08;99.40;91788.59;1063768;56;20263;-83
2021/01/01 04:01:06;;;;;;;;;;;;;;;-2.09;99.40;91787.84;1066024;55;20175;-83
2021/01/01 04:02:06;;;;;;;;;;;;;;;-2.07;99.61;91792.72;1063715;56;21193;-85
2021/01/01 04:03:08;;;;;;;;;;;;;;;-2.04;99.55;91786.75;1061498;55;20271;-84
2021/01/01 04:04:08;;;;;;;;;;;;;;;-2.05;99.50;91785.25;1063644;56;20251;-84
2021/01/01 04:05:09;;;;;;;;;;;;;;;-2.01;99.81;91796.50;1065966;55;20150;-84
2021/01/01 04:06:09;;;;;;;;;;;;;;;-1.96;99.79;91790.88;1065846;55;20177;-84
2021/01/01 04:07:10;;;;;;;;;;;;;;;-1.92;99.26;91785.66;1061646;56;20240;-83
2021/01/01 04:08:12;;;;;;;;;;;;;;;-1.93;99.60;91787.53;1063750;55;20230;-83
2021/01/01 04:09:12;;;;;;;;;;;;;;;-1.94;99.24;91785.28;1065850;55;20206;-83
2021/01/01 04:10:13;;;;;;;;;;;;;;;-2.01;99.20;91783.41;1068040;55;20161;-85
2021/01/01 04:11:13;;;;;;;;;;;;;;;-1.91;99.76;91787.16;1065855;55;21075;-83
2021/01/01 04:12:14;;;;;;;;;;;;;;;-1.97;99.62;91781.53;1063727;56;20193;-85
2021/01/01 04:13:14;;;;;;;;;;;;;;;-1.98;99.29;91787.88;1061526;56;20594;-84
2021/01/01 04:14:15;;;;;;;;;;;;;;;-1.99;99.38;91791.63;1061517;56;20157;-85
2021/01/01 04:15:15;;;;;;;;;;;;;;;-1.97;99.37;91789.41;1061616;56;20165;-85
2021/01/01 04:16:16;;;;;;;;;;;;;;;-1.98;99.29;91781.91;1061651;56;20162;-84
2021/01/01 04:17:18;;;;;;;;;;;;;;;-1.95;99.31;91781.91;1063779;55;20189;-83
2021/01/01 04:18:18;;;;;;;;;;;;;;;-1.97;99.23;91786.03;1063734;56;20185;-83
2021/01/01 04:19:20;;;;;;;;;;;;;;;-1.98;99.33;91785.25;1063796;55;21161;-84
2021/01/01 04:20:21;;;;;;;;;;;;;;;-1.99;98.91;91780.41;1063774;56;20227;-83
2021/01/01 04:21:21;;;;;;;;;;;;;;;-1.98;99.06;91784.50;1063746;55;20288;-84
2021/01/01 04:22:22;;;;;;;;;;;;;;;-1.99;99.50;91775.91;1063800;55;20153;-85
2021/01/01 04:23:22;;;;;;;;;;;;;;;-1.95;99.50;91781.16;1065894;55;20169;-82
2021/01/01 04:24:23;;;;;;;;;;;;;;;-1.88;99.43;91779.31;1063874;56;20157;-85
2021/01/01 04:25:23;;;;;;;;;;;;;;;-1.88;98.80;91783.81;1063757;55;20181;-86
2021/01/01 04:26:24;;;;;;;;;;;;;;;-1.91;98.57;91781.94;1063699;56;20193;-83
2021/01/01 04:27:24;;;;;;;;;;;;;;;-1.95;98.50;91775.94;1061613;56;20177;-84
2021/01/01 04:28:25;;;;;;;;;;;;;;;-2.05;99.29;91786.00;1061766;56;20162;-82
2021/01/01 04:29:25;;;;;;;;;;;;;;;-1.89;99.19;91779.66;1064024;55;20251;-82
2021/01/01 04:30:26;;;;;;;;;;;;;;;-1.92;99.11;91790.91;1068321;55;20157;-83
2021/01/01 04:31:26;;;;;;;;;;;;;;;-1.94;98.66;91780.78;1064146;55;20562;-83
2021/01/01 04:32:26;;;;;;;;;;;;;;;-1.96;98.75;91790.88;1059678;56;20155;-84
2021/01/01 04:33:27;;;;;;;;;;;;;;;-1.96;99.15;91782.28;1063986;55;20151;-86
2021/01/01 04:34:27;;;;;;;;;;;;;;;-2.04;98.93;91779.63;1064114;55;20169;-84
2021/01/01 04:35:28;;;;;;;;;;;;;;;-2.00;99.11;91784.16;1063917;55;20154;-84
2021/01/01 04:36:28;;;;;;;;;;;;;;;-2.04;99.08;91778.88;1061758;56;20260;-85
2021/01/01 04:37:29;;;;;;;;;;;;;;;-1.98;99.37;91776.66;1064083;55;20161;-84
2021/01/01 04:38:29;;;;;;;;;;;;;;;-1.99;99.56;91786.38;1065964;55;20157;-84
2021/01/01 04:39:30;;;;;;;;;;;;;;;-2.06;99.16;91779.28;1063984;55;20653;-84
2021/01/01 04:40:30;;;;;;;;;;;;;;;-2.01;99.13;91782.66;1064019;55;20177;-84
2021/01/01 04:41:32;;;;;;;;;;;;;;;-2.00;99.27;91779.66;1063953;55;20220;-83
2021/01/01 04:42:33;;;;;;;;;;;;;;;-2.05;99.52;91782.63;1061937;56;20174;-84
2021/01/01 04:43:35;;;;;;;;;;;;;;;-2.15;99.50;91780.72;1061950;55;20309;-83
2021/01/01 04:44:35;;;;;;;;;;;;;;;-2.15;99.49;91788.56;1063966;55;20258;-82
2021/01/01 04:45:36;;;;;;;;;;;;;;;-2.14;99.37;91782.97;1063988;55;20193;-84
2021/01/01 04:46:38;;;;;;;;;;;;;;;-2.21;98.87;91782.94;1061912;56;20746;-84
2021/01/01 04:47:39;;;;;;;;;;;;;;;-2.23;98.70;91776.59;1063999;55;20165;-85
2021/01/01 04:48:40;;;;;;;;;;;;;;;-2.25;99.22;91790.03;1061807;56;20619;-84
2021/01/01 04:49:41;;;;;;;;;;;;;;;-2.20;98.92;91788.91;1063828;55;20198;-84
2021/01/01 04:50:41;;;;;;;;;;;;;;;-2.28;98.49;91791.53;1068605;55;20153;-85
2021/01/01 04:51:43;;;;;;;;;;;;;;;-2.26;98.85;91787.78;1064019;55;20279;-83
2021/01/01 04:52:48;;;;;;;;;;;;;;;-2.23;98.77;91790.41;1061970;56;20696;-82
2021/01/01 04:53:52;;;;;;;;;;;;;;;-2.25;99.09;91789.28;1064114;55;20180;-83
2021/01/01 04:54:53;;;;;;;;;;;;;;;-2.30;98.62;91793.75;1063953;55;20161;-86
2021/01/01 04:55:54;;;;;;;;;;;;;;;-2.31;98.61;91797.47;1059685;56;20158;-84
2021/01/01 04:56:57;;;;;;;;;;;;;;;-2.36;99.04;91795.22;1059864;56;20167;-84
2021/01/01 04:57:57;;;;;;;;;;;;;;;-2.38;98.77;91794.81;1061910;56;20166;-84
2021/01/01 04:58:58;;;;;;;;;;;;;;;-2.43;99.05;91789.19;1061834;56;20185;-86
2021/01/01 04:59:59;;;;;;;;;;;;;;;-2.42;98.91;91793.31;1059779;56;20165;-85
2021/01/01 05:00:59;;;;;;;;;;;;;;;-2.55;98.80;91795.47;1059723;56;20162;-84
2021/01/01 05:02:00;;;;;;;;;;;;;;;-2.59;98.90;91795.50;1063958;55;20150;-82
2021/01/01 05:03:01;;;;;;;;;;;;;;;-2.54;98.27;91802.97;1061993;56;20189;-84
2021/01/01 05:04:04;;;;;;;;;;;;;;;-2.55;99.15;91798.88;1061952;56;20186;-84
2021/01/01 05:05:05;;;;;;;;;;;;;;;-2.49;99.17;91801.13;1064117;55;20578;-86
2021/01/01 05:06:05;;;;;;;;;;;;;;;-2.48;98.85;91792.16;1064099;55;20177;-85
2021/01/01 05:07:06;;;;;;;;;;;;;;;-2.49;98.92;91801.88;1063922;55;20158;-83
2021/01/01 05:08:09;;;;;;;;;;;;;;;-2.46;98.50;91795.16;1059735;56;20158;-83
2021/01/01 05:09:13;;;;;;;;;;;;;;;-2.48;98.72;91802.63;1059815;56;20210;-83
2021/01/01 05:10:14;;;;;;;;;;;;;;;-2.51;98.56;91798.88;1059903;56;20186;-83
2021/01/01 05:11:14;;;;;;;;;;;;;;;-2.47;98.76;91799.66;1059799;56;20170;-84
2021/01/01 05:12:15;;;;;;;;;;;;;;;-2.46;99.49;91803.00;1061958;56;20162;-83
2021/01/01 05:13:17;;;;;;;;;;;;;;;-2.51;99.52;91804.09;1063945;55;20590;-84
2021/01/01 05:14:27;;;;;;;;;;;;;;;-2.56;99.54;91810.44;1061933;56;20193;-83
2021/01/01 05:15:34;;;;;;;;;;;;;;;-2.56;99.67;91804.44;1060450;56;20189;-83
2021/01/01 05:16:35;;;;;;;;;;;;;;;-2.50;99.51;91812.69;1062054;56;20162;-85